Aurora, Minnesota
Current Conditions -  °F | °C
As of 9:11 AM on Thursday 30 Oct 2014 (Local Time) from KEVM Reporting Station
Overcast Overcast  
Wind Chill: 29°   Ceiling: 1600
Heat Index: 36°   Visibility: 10mi
Dew Point: 34°   Wind: 8mph
Humidity: 93%   Direction: 320°NW
Pressure: 30.07"   Gusts: NA
Location:  47.53°N, 92.24°W
Report Text: KEVM 301411Z AUTO 32007KT 10SM SCT011 OVC016 02/01 A3007 RMK AO2
Loading
Personal Weather Stations






























Interactive Weather Map
Tropical Storm Tracking
New forecast layout! Learn more

10-Day Weather Forecast

Advertisements
Track Severe Weather on mobile